x

South Brooks (46132) Wave Buoy

10:00am - Fri 29th Jul 2016 All times are PDT. -7 hours from GMT.

  • Sig Wave height 5.9ft
  • Peak Period 6s
  • Wind
    27mph, 34mph gusts
  • Sea Temp 56°f
  • Air Temp 59°f
  • Sea Pressure 1019.6mb
  • South Brooks
  • South Brooks

More Historic Weather Station data

Upgrade to MSW Pro to gain access to the past 30 days of data for over 8000 Wavebouys and Weather Stations around the globe.

Join Pro

Comparision Forecast

View Surf forecast
   
Fri 07/29 10:00am 6ft 6s 27 34 mph 1019.6mb 56f 59f
9:00am 6ft 6s 27 31 mph 1019.6mb 57f 59f
8:00am 6ft 7s 25 31 mph 1019.9mb 57f 59f
7:00am 5.5ft 6s 25 29 mph 1019.9mb 56f 59f
6:00am 6ft 6s 22 29 mph 1020.4mb 56f 59f
5:00am 6ft 6s 27 34 mph 1020.8mb 56f 59f
4:00am 6.5ft 6s 29 34 mph 1020.6mb 56f 59f
3:00am  -   -  29
mph
1020.6mb - 58f
2:00am  -   -  29
mph
1020.7mb 56f 58f
1:00am  -   -  27
mph
1021mb - 58f
12:00am 6ft 5s 31 38 mph 1020.7mb 57f 58f
Thu 07/28 11:00pm 6ft 5s 27 31 mph 1021mb 57f 58f
10:00pm 6.5ft 6s 27 34 mph 1021.1mb 57f 58f
8:00pm 5.5ft 5s 27 31 mph 1020.9mb 57f 59f
6:00pm 6ft 5s 31 36 mph 1021.2mb 58f 60f
5:00pm 6ft 5s 27 31 mph 1021.6mb 58f 60f
3:00pm 5ft 5s 29 38 mph 1022.1mb 58f 60f
2:00pm 5ft 5s 27 34 mph 1022.6mb 58f 60f
1:00pm 5ft 5s 27 31 mph 1022.6mb 58f 60f
12:00pm 5ft 5s 27 31 mph 1022.8mb 58f 60f
11:00am 4.5ft 5s 25 31 mph 1022.9mb 58f 60f
10:00am 4.5ft 5s 27 31 mph 1022.9mb 58f 59f
9:00am 4.5ft 5s 25 29 mph 1022.7mb 58f 59f
8:00am 4.5ft 4s 27 31 mph 1022.7mb 58f 59f
7:00am 4.5ft 5s 22 27 mph 1022.9mb 58f 59f
6:00am 4.5ft 4s 22 27 mph 1022.8mb 58f 59f
5:00am 4.5ft 4s 25 27 mph 1022.8mb 58f 59f
4:00am 4.5ft 5s 22 27 mph 1023mb 58f 59f
3:00am 5ft 5s 27 31 mph 1022.6mb 58f 59f
2:00am 5ft 5s 22 27 mph 1022.7mb 58f 59f
1:00am 5.5ft 6s 22 27 mph 1023.1mb 58f 60f
12:00am 6ft 6s 29 34 mph 1022.7mb 58f 60f
Wed 07/27 11:00pm  -   -  29
mph
1022.9mb - 60f
9:00pm  -   -  27
mph
1022.3mb - 59f
8:00pm 5ft 5s 22 27 mph 1022.2mb 56f 59f
7:00pm 5.5ft 5s 25 29 mph 1022.2mb 56f 60f
6:00pm 5ft 5s 29 34 mph 1022mb 56f 60f
5:00pm 5.5ft 5s 27 34 mph 1022.5mb 56f 60f
4:00pm  -   -  25
mph
- - 59f
3:00pm 5ft 5s 22 29 mph 1023.2mb 56f 59f
2:00pm 4.5ft 5s 20 25 mph 1023.6mb 56f 60f
1:00pm 4.5ft 5s 22 29 mph 1023.4mb 56f 59f
12:00pm 4.5ft 5s 25 29 mph 1023.2mb 56f 59f
11:00am 4.5ft 5s 22 25 mph 1023mb 56f 58f
10:00am 5ft 5s 22 27 mph 1023mb 56f 58f
9:00am 4.5ft 4s 25 27 mph 1023.1mb 56f 58f
8:00am 4.5ft 5s 20 27 mph 1022.7mb 57f 58f
7:00am 4.5ft 5s 25 29 mph 1022.4mb 57f 58f
5:00am 5ft 5s 27 29 mph 1022.1mb 57f 59f
4:00am 4.5ft 5s 25 29 mph 1022.2mb 58f 58f
3:00am 4.5ft 5s 25 31 mph 1021.8mb 58f 58f
2:00am 5ft 5s 22 27 mph 1021.8mb 58f 58f
1:00am 4.5ft 4s 22 27 mph 1022.2mb 58f 59f
12:00am 4.5ft 4s 22 27 mph 1022.5mb 58f 60f
Tue 07/26 11:00pm 4.5ft 5s 22 27 mph 1022.5mb 58f 60f
10:00pm 5ft 4s 22 27 mph 1022.8mb 58f 60f
9:00pm  -   -  25
mph
1022.2mb - 60f
8:00pm 5ft 8s 29 34 mph 1021.6mb 59f 60f
7:00pm 5ft 9s 27 31 mph 1021.7mb 59f 61f
6:00pm 5ft 9s 25 31 mph 1022mb 59f 61f
5:00pm 5ft 5s 25 29 mph 1022.5mb 59f 61f
4:00pm 5ft 5s 27 34 mph 1022.5mb 59f 60f
3:00pm 5ft 14s 25 31 mph 1022.7mb 59f 60f
2:00pm 5ft 4s 25 29 mph 1022.9mb 58f 60f
1:00pm 5ft 10s 25 29 mph 1023mb 58f 60f
12:00pm 5ft 9s 25 29 mph 1022.8mb 58f 59f
11:00am 5ft 9s 25 29 mph 1022.5mb 58f 59f
10:00am  -   -  22
mph
- - -
9:00am 5ft 10s 22 27 mph 1022.4mb 58f 59f
8:00am 5.5ft 10s 22 27 mph 1021.9mb 58f 59f
7:00am 5ft 10s 22 27 mph 1021.7mb 58f 59f
5:00am 5.5ft 10s 22 27 mph 1021.3mb 58f 60f
4:00am 6ft 10s 22 27 mph 1021.3mb 58f 60f
3:00am 6ft 10s 22 27 mph 1020.9mb 58f 60f
2:00am 6ft 10s 22 27 mph 1021mb 58f 60f
1:00am 6ft 5s 25 29 mph 1020.6mb 58f 60f
12:00am 6ft 5s 25 31 mph 1020.4mb 58f 60f
Mon 07/25 11:00pm 6ft 5s 25 29 mph 1020.3mb 58f 60f
10:00pm 7ft 9s 25 29 mph 1020.3mb 58f 60f
9:00pm 6.5ft 10s 25 29 mph 1020.1mb 59f 60f
8:00pm 7ft 10s 27 31 mph 1019.7mb 59f 61f
7:00pm 7ft 10s 25 29 mph 1019.6mb 59f 60f